Time;durP1;ratioP1;P1;durP2;ratioP2;P2;SDS_P1;SDS_P2;PMS_P1;PMS_P2;Temp;Humidity;BMP_temperature;BMP_pressure;BME280_temperature;BME280_humidity;BME280_pressure;Samples;Min_cycle;Max_cycle;Signal;HPM_P1;HPM_P2
2019/05/28 00:13:27;;;;;;;16.95;15.3;;;;;;;13.05;95.07813;94298.38;;;;
2019/05/28 00:14:28;;;;;;;16.95;15.3;;;;;;;13.05;95.07813;94298.38;;;;
2019/05/28 00:15:29;;;;;;;16.95;15.3;;;;;;;13.05;95.07813;94298.38;;;;
2019/05/28 00:16:30;;;;;;;16.95;15.3;;;;;;;13.05;95.07813;94298.38;;;;
2019/05/28 00:17:32;;;;;;;16.95;15.3;;;;;;;13.05;95.07813;94298.38;;;;
2019/05/28 00:18:33;;;;;;;16.95;15.3;;;;;;;13.05;95.07813;94298.38;;;;
2019/05/28 00:19:34;;;;;;;16.95;15.3;;;;;;;13.05;95.07813;94298.38;;;;
2019/05/28 00:20:35;;;;;;;16.95;15.3;;;;;;;13.05;95.07813;94298.38;;;;
2019/05/28 00:21:36;;;;;;;16.95;15.3;;;;;;;13.05;95.07813;94298.38;;;;
2019/05/28 00:22:37;;;;;;;16.95;15.3;;;;;;;13.05;95.07813;94298.38;;;;
2019/05/28 00:23:38;;;;;;;16.95;15.3;;;;;;;13.05;95.07813;94298.38;;;;
2019/05/28 00:24:39;;;;;;;16.95;15.3;;;;;;;13.05;95.07813;94298.38;;;;
2019/05/28 00:25:40;;;;;;;16.95;15.3;;;;;;;13.05;95.07813;94298.38;;;;
2019/05/28 00:26:41;;;;;;;16.95;15.3;;;;;;;13.05;95.07813;94298.38;;;;
2019/05/28 00:27:42;;;;;;;16.95;15.3;;;;;;;13.05;95.07813;94298.38;;;;
2019/05/28 00:28:43;;;;;;;16.95;15.3;;;;;;;13.05;95.07813;94298.38;;;;
2019/05/28 00:29:44;;;;;;;16.95;15.3;;;;;;;13.05;95.07813;94298.38;;;;
2019/05/28 00:30:45;;;;;;;16.95;15.3;;;;;;;13.05;95.07813;94298.38;;;;
2019/05/28 00:31:47;;;;;;;16.95;15.3;;;;;;;13.05;95.07813;94298.38;;;;
2019/05/28 00:32:48;;;;;;;16.95;15.3;;;;;;;13.05;95.07813;94298.38;;;;
2019/05/28 00:33:49;;;;;;;16.95;15.3;;;;;;;13.05;95.07813;94298.38;;;;
2019/05/28 00:34:50;;;;;;;18.3;16.6;;;;;;;12.99;95.66309;94271.8;;;;
2019/05/28 00:35:51;;;;;;;18.3;16.6;;;;;;;12.99;95.66309;94271.8;;;;
2019/05/28 00:36:52;;;;;;;18.3;16.6;;;;;;;12.99;95.66309;94271.8;;;;
2019/05/28 00:37:53;;;;;;;18.3;16.6;;;;;;;12.99;95.66309;94271.8;;;;
2019/05/28 00:38:54;;;;;;;18.3;16.6;;;;;;;12.99;95.66309;94271.8;;;;
2019/05/28 00:39:55;;;;;;;18.3;16.6;;;;;;;12.99;95.66309;94271.8;;;;
2019/05/28 00:40:56;;;;;;;18.3;16.6;;;;;;;12.99;95.66309;94271.8;;;;
2019/05/28 00:41:57;;;;;;;18.3;16.6;;;;;;;12.99;95.66309;94271.8;;;;
2019/05/28 00:42:58;;;;;;;18.3;16.6;;;;;;;12.99;95.66309;94271.8;;;;
2019/05/28 00:43:59;;;;;;;18.3;16.6;;;;;;;12.99;95.66309;94271.8;;;;
2019/05/28 00:45:00;;;;;;;18.3;16.6;;;;;;;12.99;95.66309;94271.8;;;;
2019/05/28 00:46:01;;;;;;;18.3;16.6;;;;;;;12.99;95.66309;94271.8;;;;
2019/05/28 00:47:03;;;;;;;18.3;16.6;;;;;;;12.99;95.66309;94271.8;;;;
2019/05/28 00:48:04;;;;;;;18.3;16.6;;;;;;;12.99;95.66309;94271.8;;;;
2019/05/28 00:49:05;;;;;;;18.3;16.6;;;;;;;12.99;95.66309;94271.8;;;;
2019/05/28 00:50:06;;;;;;;18.3;16.6;;;;;;;12.99;95.66309;94271.8;;;;
2019/05/28 00:51:07;;;;;;;18.3;16.6;;;;;;;12.99;95.66309;94271.8;;;;
2019/05/28 00:52:08;;;;;;;18.3;16.6;;;;;;;12.99;95.66309;94271.8;;;;
2019/05/28 00:53:09;;;;;;;18.3;16.6;;;;;;;12.99;95.66309;94271.8;;;;
2019/05/28 00:54:10;;;;;;;18.3;16.6;;;;;;;12.99;95.66309;94271.8;;;;
2019/05/28 00:55:11;;;;;;;18.3;16.6;;;;;;;12.99;95.66309;94271.8;;;;
2019/05/28 00:56:12;;;;;;;18.3;16.6;;;;;;;12.99;95.66309;94271.8;;;;
2019/05/28 00:57:13;;;;;;;18.3;16.6;;;;;;;12.99;95.66309;94271.8;;;;
2019/05/28 00:58:14;;;;;;;18.3;16.6;;;;;;;12.99;95.66309;94271.8;;;;
2019/05/28 00:59:16;;;;;;;18.3;16.6;;;;;;;12.99;95.66309;94271.8;;;;
2019/05/28 01:00:17;;;;;;;18.3;16.6;;;;;;;12.99;95.66309;94271.8;;;;
2019/05/28 01:01:42;;;;;;;18.3;16.6;;;;;;;12.99;95.66309;94271.8;;;;
2019/05/28 01:02:43;;;;;;;18.3;16.6;;;;;;;12.99;95.66309;94271.8;;;;
2019/05/28 01:03:45;;;;;;;18.3;16.6;;;;;;;12.99;95.66309;94271.8;;;;
2019/05/28 01:04:46;;;;;;;18.3;16.6;;;;;;;12.99;95.66309;94271.8;;;;
2019/05/28 01:05:47;;;;;;;18.3;16.6;;;;;;;12.99;95.66309;94271.8;;;;
2019/05/28 01:06:58;;;;;;;18.3;16.6;;;;;;;12.99;95.66309;94271.8;;;;
2019/05/28 01:07:59;;;;;;;18.3;16.6;;;;;;;12.99;95.66309;94271.8;;;;
2019/05/28 01:09:00;;;;;;;18.3;16.6;;;;;;;12.99;95.66309;94271.8;;;;
2019/05/28 01:10:03;;;;;;;18.3;16.6;;;;;;;12.99;95.66309;94271.8;;;;
2019/05/28 01:11:05;;;;;;;18.3;16.6;;;;;;;12.99;95.66309;94271.8;;;;
2019/05/28 01:12:06;;;;;;;18.3;16.6;;;;;;;12.99;95.66309;94271.8;;;;
2019/05/28 01:13:07;;;;;;;18.3;16.6;;;;;;;12.99;95.66309;94271.8;;;;
2019/05/28 01:14:08;;;;;;;18.3;16.6;;;;;;;12.99;95.66309;94271.8;;;;
2019/05/28 01:15:09;;;;;;;18.3;16.6;;;;;;;12.99;95.66309;94271.8;;;;
2019/05/28 01:16:11;;;;;;;18.3;16.6;;;;;;;12.99;95.66309;94271.8;;;;
2019/05/28 01:17:12;;;;;;;18.3;16.6;;;;;;;12.99;95.66309;94271.8;;;;
2019/05/28 01:18:13;;;;;;;18.3;16.6;;;;;;;12.99;95.66309;94271.8;;;;
2019/05/28 01:19:14;;;;;;;18.3;16.6;;;;;;;12.99;95.66309;94271.8;;;;
2019/05/28 02:10:18;;;;;;;13.4;12.1;;;;;;;12.9;97.69629;94199.5;;;;
2019/05/28 02:11:19;;;;;;;13.4;12.1;;;;;;;12.9;97.69629;94199.5;;;;
2019/05/28 02:12:20;;;;;;;13.4;12.1;;;;;;;12.9;97.69629;94199.5;;;;
2019/05/28 02:13:21;;;;;;;13.4;12.1;;;;;;;12.9;97.69629;94199.5;;;;
2019/05/28 02:14:22;;;;;;;13.4;12.1;;;;;;;12.9;97.69629;94199.5;;;;
2019/05/28 02:15:24;;;;;;;13.4;12.1;;;;;;;12.9;97.69629;94199.5;;;;
2019/05/28 02:16:25;;;;;;;13.4;12.1;;;;;;;12.9;97.69629;94199.5;;;;
2019/05/28 02:17:26;;;;;;;13.4;12.1;;;;;;;12.9;97.69629;94199.5;;;;
2019/05/28 02:18:27;;;;;;;13.4;12.1;;;;;;;12.9;97.69629;94199.5;;;;
2019/05/28 02:19:28;;;;;;;13.4;12.1;;;;;;;12.9;97.69629;94199.5;;;;
2019/05/28 02:20:29;;;;;;;13.4;12.1;;;;;;;12.9;97.69629;94199.5;;;;
2019/05/28 02:21:30;;;;;;;13.4;12.1;;;;;;;12.9;97.69629;94199.5;;;;
2019/05/28 02:22:32;;;;;;;13.4;12.1;;;;;;;12.9;97.69629;94199.5;;;;
2019/05/28 02:23:33;;;;;;;13.4;12.1;;;;;;;12.9;97.69629;94199.5;;;;
2019/05/28 02:24:34;;;;;;;13.4;12.1;;;;;;;12.9;97.69629;94199.5;;;;
2019/05/28 02:25:35;;;;;;;13.4;12.1;;;;;;;12.9;97.69629;94199.5;;;;
2019/05/28 02:26:36;;;;;;;13.4;12.1;;;;;;;12.9;97.69629;94199.5;;;;
2019/05/28 02:27:37;;;;;;;13.4;12.1;;;;;;;12.9;97.69629;94199.5;;;;
2019/05/28 02:28:38;;;;;;;13.4;12.1;;;;;;;12.9;97.69629;94199.5;;;;
2019/05/28 02:29:39;;;;;;;13.4;12.1;;;;;;;12.9;97.69629;94199.5;;;;
2019/05/28 02:30:40;;;;;;;13.4;12.1;;;;;;;12.9;97.69629;94199.5;;;;
2019/05/28 02:31:42;;;;;;;13.4;12.1;;;;;;;12.9;97.69629;94199.5;;;;
2019/05/28 02:32:43;;;;;;;13.4;12.1;;;;;;;12.9;97.69629;94199.5;;;;
2019/05/28 02:33:44;;;;;;;13.4;12.1;;;;;;;12.9;97.69629;94199.5;;;;
2019/05/28 02:34:45;;;;;;;13.4;12.1;;;;;;;12.9;97.69629;94199.5;;;;
2019/05/28 02:35:46;;;;;;;13.4;12.1;;;;;;;12.9;97.69629;94199.5;;;;
2019/05/28 02:36:47;;;;;;;13.4;12.1;;;;;;;12.9;97.69629;94199.5;;;;
2019/05/28 02:37:48;;;;;;;13.4;12.1;;;;;;;12.9;97.69629;94199.5;;;;
2019/05/28 02:38:49;;;;;;;13.4;12.1;;;;;;;12.9;97.69629;94199.5;;;;
2019/05/28 02:39:50;;;;;;;13.4;12.1;;;;;;;12.9;97.69629;94199.5;;;;
2019/05/28 02:40:51;;;;;;;13.4;12.1;;;;;;;12.9;97.69629;94199.5;;;;
2019/05/28 02:41:53;;;;;;;13.4;12.1;;;;;;;12.9;97.69629;94199.5;;;;
2019/05/28 02:42:54;;;;;;;13.4;12.1;;;;;;;12.9;97.69629;94199.5;;;;
2019/05/28 02:43:55;;;;;;;13.4;12.1;;;;;;;12.9;97.69629;94199.5;;;;
2019/05/28 02:44:56;;;;;;;13.4;12.1;;;;;;;12.9;97.69629;94199.5;;;;
2019/05/28 02:45:57;;;;;;;13.4;12.1;;;;;;;12.9;97.69629;94199.5;;;;
2019/05/28 02:46:58;;;;;;;13.4;12.1;;;;;;;12.9;97.69629;94199.5;;;;
2019/05/28 02:48:00;;;;;;;13.4;12.1;;;;;;;12.9;97.69629;94199.5;;;;
2019/05/28 02:49:01;;;;;;;13.4;12.1;;;;;;;12.9;97.69629;94199.5;;;;
2019/05/28 02:50:02;;;;;;;13.4;12.1;;;;;;;12.9;97.69629;94199.5;;;;
2019/05/28 02:51:03;;;;;;;13.4;12.1;;;;;;;12.9;97.69629;94199.5;;;;
2019/05/28 02:52:04;;;;;;;13.4;12.1;;;;;;;12.9;97.69629;94199.5;;;;
2019/05/28 02:53:05;;;;;;;13.4;12.1;;;;;;;12.9;97.69629;94199.5;;;;
2019/05/28 02:54:06;;;;;;;13.4;12.1;;;;;;;12.9;97.69629;94199.5;;;;
2019/05/28 03:14:08;;;;;;;13.15;11.95;;;;;;;12.71;98.91211;94167.31;;;;
2019/05/28 03:15:09;;;;;;;13.15;11.95;;;;;;;12.71;98.91211;94167.31;;;;
2019/05/28 03:16:10;;;;;;;13.15;11.95;;;;;;;12.71;98.91211;94167.31;;;;
2019/05/28 03:17:12;;;;;;;13.15;11.95;;;;;;;12.71;98.91211;94167.31;;;;
2019/05/28 03:18:13;;;;;;;13.15;11.95;;;;;;;12.71;98.91211;94167.31;;;;
2019/05/28 03:19:14;;;;;;;13.15;11.95;;;;;;;12.71;98.91211;94167.31;;;;
2019/05/28 03:20:15;;;;;;;13.15;11.95;;;;;;;12.71;98.91211;94167.31;;;;
2019/05/28 03:21:16;;;;;;;13.15;11.95;;;;;;;12.71;98.91211;94167.31;;;;
2019/05/28 03:22:17;;;;;;;13.15;11.95;;;;;;;12.71;98.91211;94167.31;;;;
2019/05/28 03:23:18;;;;;;;13.15;11.95;;;;;;;12.71;98.91211;94167.31;;;;
2019/05/28 03:24:19;;;;;;;12.25;11.15;;;;;;;12.64;99.12402;94182.51;;;;
2019/05/28 03:25:20;;;;;;;12.25;11.15;;;;;;;12.64;99.12402;94182.51;;;;
2019/05/28 03:26:21;;;;;;;12.25;11.15;;;;;;;12.64;99.12402;94182.51;;;;
2019/05/28 03:27:22;;;;;;;12.25;11.15;;;;;;;12.64;99.12402;94182.51;;;;
2019/05/28 03:28:24;;;;;;;12.25;11.15;;;;;;;12.64;99.12402;94182.51;;;;
2019/05/28 03:29:25;;;;;;;12.25;11.15;;;;;;;12.64;99.12402;94182.51;;;;
2019/05/28 03:30:26;;;;;;;12.25;11.15;;;;;;;12.64;99.12402;94182.51;;;;
2019/05/28 03:31:27;;;;;;;12.25;11.15;;;;;;;12.64;99.12402;94182.51;;;;
2019/05/28 03:32:28;;;;;;;12.25;11.15;;;;;;;12.64;99.12402;94182.51;;;;
2019/05/28 03:33:29;;;;;;;12.25;11.15;;;;;;;12.64;99.12402;94182.51;;;;
2019/05/28 03:34:30;;;;;;;12.25;11.15;;;;;;;12.64;99.12402;94182.51;;;;
2019/05/28 03:35:31;;;;;;;12.25;11.15;;;;;;;12.64;99.12402;94182.51;;;;
2019/05/28 03:36:33;;;;;;;12.25;11.15;;;;;;;12.64;99.12402;94182.51;;;;
2019/05/28 03:37:34;;;;;;;12.25;11.15;;;;;;;12.64;99.12402;94182.51;;;;
2019/05/28 03:38:35;;;;;;;12.25;11.15;;;;;;;12.64;99.12402;94182.51;;;;
2019/05/28 03:39:36;;;;;;;12.25;11.15;;;;;;;12.64;99.12402;94182.51;;;;
2019/05/28 03:40:37;;;;;;;12.25;11.15;;;;;;;12.64;99.12402;94182.51;;;;
2019/05/28 03:41:40;;;;;;;12.25;11.15;;;;;;;12.64;99.12402;94182.51;;;;
2019/05/28 03:42:41;;;;;;;12.25;11.15;;;;;;;12.64;99.12402;94182.51;;;;
2019/05/28 03:43:42;;;;;;;12.25;11.15;;;;;;;12.64;99.12402;94182.51;;;;
2019/05/28 03:44:43;;;;;;;12.25;11.15;;;;;;;12.64;99.12402;94182.51;;;;
2019/05/28 03:45:44;;;;;;;12.25;11.15;;;;;;;12.64;99.12402;94182.51;;;;
2019/05/28 03:46:45;;;;;;;12.25;11.15;;;;;;;12.64;99.12402;94182.51;;;;
2019/05/28 03:47:46;;;;;;;12.25;11.15;;;;;;;12.64;99.12402;94182.51;;;;
2019/05/28 03:48:48;;;;;;;12.25;11.15;;;;;;;12.64;99.12402;94182.51;;;;
2019/05/28 03:49:49;;;;;;;12.25;11.15;;;;;;;12.64;99.12402;94182.51;;;;
2019/05/28 03:50:50;;;;;;;12.25;11.15;;;;;;;12.64;99.12402;94182.51;;;;
2019/05/28 03:51:51;;;;;;;12.25;11.15;;;;;;;12.64;99.12402;94182.51;;;;
2019/05/28 03:52:52;;;;;;;12.25;11.15;;;;;;;12.64;99.12402;94182.51;;;;
2019/05/28 03:53:53;;;;;;;12.25;11.15;;;;;;;12.64;99.12402;94182.51;;;;
2019/05/28 03:54:54;;;;;;;12.25;11.15;;;;;;;12.64;99.12402;94182.51;;;;
2019/05/28 03:55:55;;;;;;;12.85;11.65;;;;;;;12.68;99.79199;94170.59;;;;
2019/05/28 03:56:56;;;;;;;12.85;11.65;;;;;;;12.68;99.79199;94170.59;;;;
2019/05/28 03:57:57;;;;;;;12.85;11.65;;;;;;;12.68;99.79199;94170.59;;;;
2019/05/28 03:58:58;;;;;;;12.85;11.65;;;;;;;12.68;99.79199;94170.59;;;;
2019/05/28 03:59:59;;;;;;;12.85;11.65;;;;;;;12.68;99.79199;94170.59;;;;
2019/05/28 04:01:00;;;;;;;12.85;11.65;;;;;;;12.68;99.79199;94170.59;;;;
2019/05/28 04:02:01;;;;;;;12.85;11.65;;;;;;;12.68;99.79199;94170.59;;;;
2019/05/28 04:03:02;;;;;;;12.85;11.65;;;;;;;12.68;99.79199;94170.59;;;;
2019/05/28 04:04:03;;;;;;;12.85;11.65;;;;;;;12.68;99.79199;94170.59;;;;
2019/05/28 04:05:05;;;;;;;12.85;11.65;;;;;;;12.68;99.79199;94170.59;;;;
2019/05/28 04:06:06;;;;;;;12.85;11.65;;;;;;;12.68;99.79199;94170.59;;;;
2019/05/28 04:07:07;;;;;;;12.85;11.65;;;;;;;12.68;99.79199;94170.59;;;;
2019/05/28 04:08:08;;;;;;;12.85;11.65;;;;;;;12.68;99.79199;94170.59;;;;
2019/05/28 04:09:09;;;;;;;12.85;11.65;;;;;;;12.68;99.79199;94170.59;;;;
2019/05/28 04:10:10;;;;;;;12.85;11.65;;;;;;;12.68;99.79199;94170.59;;;;
2019/05/28 04:11:11;;;;;;;12.85;11.65;;;;;;;12.68;99.79199;94170.59;;;;
2019/05/28 04:12:12;;;;;;;12.85;11.65;;;;;;;12.68;99.79199;94170.59;;;;
2019/05/28 04:13:13;;;;;;;12.85;11.65;;;;;;;12.68;99.79199;94170.59;;;;
2019/05/28 04:14:14;;;;;;;12.85;11.65;;;;;;;12.68;99.79199;94170.59;;;;
2019/05/28 04:15:15;;;;;;;12.85;11.65;;;;;;;12.68;99.79199;94170.59;;;;
2019/05/28 04:16:16;;;;;;;12.85;11.65;;;;;;;12.68;99.79199;94170.59;;;;
2019/05/28 04:17:18;;;;;;;12.85;11.65;;;;;;;12.68;99.79199;94170.59;;;;
2019/05/28 04:18:19;;;;;;;12.85;11.65;;;;;;;12.68;99.79199;94170.59;;;;
2019/05/28 04:19:20;;;;;;;12.85;11.65;;;;;;;12.68;99.79199;94170.59;;;;
2019/05/28 04:20:21;;;;;;;12.85;11.65;;;;;;;12.68;99.79199;94170.59;;;;
2019/05/28 04:21:22;;;;;;;12.85;11.65;;;;;;;12.68;99.79199;94170.59;;;;
2019/05/28 04:22:23;;;;;;;12.85;11.65;;;;;;;12.68;99.79199;94170.59;;;;
2019/05/28 04:23:24;;;;;;;12.85;11.65;;;;;;;12.68;99.79199;94170.59;;;;
2019/05/28 04:24:25;;;;;;;12.85;11.65;;;;;;;12.68;99.79199;94170.59;;;;
2019/05/28 04:25:26;;;;;;;12.85;11.65;;;;;;;12.68;99.79199;94170.59;;;;
2019/05/28 04:26:27;;;;;;;12.85;11.65;;;;;;;12.68;99.79199;94170.59;;;;
2019/05/28 04:27:28;;;;;;;12.85;11.65;;;;;;;12.68;99.79199;94170.59;;;;
2019/05/28 04:28:29;;;;;;;12.85;11.65;;;;;;;12.68;99.79199;94170.59;;;;
2019/05/28 04:29:30;;;;;;;12.85;11.65;;;;;;;12.68;99.79199;94170.59;;;;
2019/05/28 04:30:31;;;;;;;12.85;11.65;;;;;;;12.68;99.79199;94170.59;;;;
2019/05/28 04:31:32;;;;;;;12.85;11.65;;;;;;;12.68;99.79199;94170.59;;;;
2019/05/28 04:32:33;;;;;;;12.85;11.65;;;;;;;12.68;99.79199;94170.59;;;;
2019/05/28 04:33:34;;;;;;;12.85;11.65;;;;;;;12.68;99.79199;94170.59;;;;
2019/05/28 04:34:36;;;;;;;12.85;11.65;;;;;;;12.68;99.79199;94170.59;;;;
2019/05/28 04:35:37;;;;;;;12.85;11.65;;;;;;;12.68;99.79199;94170.59;;;;
2019/05/28 04:36:38;;;;;;;12.85;11.65;;;;;;;12.68;99.79199;94170.59;;;;
2019/05/28 04:37:39;;;;;;;12.85;11.65;;;;;;;12.68;99.79199;94170.59;;;;
2019/05/28 04:38:40;;;;;;;12.85;11.65;;;;;;;12.68;99.79199;94170.59;;;;
2019/05/28 04:39:41;;;;;;;12.85;11.65;;;;;;;12.68;99.79199;94170.59;;;;
2019/05/28 04:40:42;;;;;;;12.85;11.65;;;;;;;12.68;99.79199;94170.59;;;;
2019/05/28 05:31:46;;;;;;;10.2;9.299999;;;;;;;13.77;100;94167.6;;;;
2019/05/28 05:32:47;;;;;;;10.2;9.299999;;;;;;;13.77;100;94167.6;;;;
2019/05/28 05:33:48;;;;;;;10.2;9.299999;;;;;;;13.77;100;94167.6;;;;
2019/05/28 05:34:49;;;;;;;10.2;9.299999;;;;;;;13.77;100;94167.6;;;;
2019/05/28 05:35:50;;;;;;;10.2;9.299999;;;;;;;13.77;100;94167.6;;;;
2019/05/28 05:36:51;;;;;;;10.2;9.299999;;;;;;;13.77;100;94167.6;;;;
2019/05/28 05:37:52;;;;;;;10.2;9.299999;;;;;;;13.77;100;94167.6;;;;
2019/05/28 05:38:53;;;;;;;10.2;9.299999;;;;;;;13.77;100;94167.6;;;;
2019/05/28 05:39:54;;;;;;;10.2;9.299999;;;;;;;13.77;100;94167.6;;;;
2019/05/28 05:40:55;;;;;;;10.2;9.299999;;;;;;;13.77;100;94167.6;;;;
2019/05/28 05:41:57;;;;;;;10.2;9.299999;;;;;;;13.77;100;94167.6;;;;
2019/05/28 05:42:58;;;;;;;10.2;9.299999;;;;;;;13.77;100;94167.6;;;;
2019/05/28 05:43:59;;;;;;;10.2;9.299999;;;;;;;13.77;100;94167.6;;;;
2019/05/28 05:45:00;;;;;;;10.2;9.299999;;;;;;;13.77;100;94167.6;;;;
2019/05/28 05:46:01;;;;;;;10.2;9.299999;;;;;;;13.77;100;94167.6;;;;
2019/05/28 05:47:02;;;;;;;10.2;9.299999;;;;;;;13.77;100;94167.6;;;;
2019/05/28 05:48:03;;;;;;;10.2;9.299999;;;;;;;13.77;100;94167.6;;;;
2019/05/28 05:49:04;;;;;;;10.2;9.299999;;;;;;;13.77;100;94167.6;;;;
2019/05/28 05:50:05;;;;;;;10.2;9.299999;;;;;;;13.77;100;94167.6;;;;
2019/05/28 05:51:06;;;;;;;10.2;9.299999;;;;;;;13.77;100;94167.6;;;;
2019/05/28 05:52:07;;;;;;;10.2;9.299999;;;;;;;13.77;100;94167.6;;;;
2019/05/28 05:53:08;;;;;;;10.2;9.299999;;;;;;;13.77;100;94167.6;;;;
2019/05/28 05:54:10;;;;;;;10.2;9.299999;;;;;;;13.77;100;94167.6;;;;
2019/05/28 05:55:11;;;;;;;10.2;9.299999;;;;;;;13.77;100;94167.6;;;;
2019/05/28 05:56:12;;;;;;;10.2;9.299999;;;;;;;13.77;100;94167.6;;;;
2019/05/28 05:57:13;;;;;;;10.2;9.299999;;;;;;;13.77;100;94167.6;;;;
2019/05/28 05:58:14;;;;;;;10.2;9.299999;;;;;;;13.77;100;94167.6;;;;
2019/05/28 05:59:15;;;;;;;10.2;9.299999;;;;;;;13.77;100;94167.6;;;;
2019/05/28 06:00:16;;;;;;;10.2;9.299999;;;;;;;13.77;100;94167.6;;;;
2019/05/28 06:01:17;;;;;;;10.2;9.299999;;;;;;;13.77;100;94167.6;;;;
2019/05/28 06:02:18;;;;;;;10.2;9.299999;;;;;;;13.77;100;94167.6;;;;
2019/05/28 06:03:20;;;;;;;6.7;5.55;;;;;;;14.42;99.6084;94178.75;;;;
2019/05/28 06:04:21;;;;;;;6.7;5.55;;;;;;;14.42;99.6084;94178.75;;;;
2019/05/28 06:05:22;;;;;;;6.7;5.55;;;;;;;14.42;99.6084;94178.75;;;;
2019/05/28 06:06:23;;;;;;;6.7;5.55;;;;;;;14.42;99.6084;94178.75;;;;
2019/05/28 06:07:24;;;;;;;6.7;5.55;;;;;;;14.42;99.6084;94178.75;;;;
2019/05/28 06:08:25;;;;;;;6.7;5.55;;;;;;;14.42;99.6084;94178.75;;;;
2019/05/28 06:09:26;;;;;;;6.7;5.55;;;;;;;14.42;99.6084;94178.75;;;;
2019/05/28 06:10:27;;;;;;;6.7;5.55;;;;;;;14.42;99.6084;94178.75;;;;
2019/05/28 06:11:28;;;;;;;6.7;5.55;;;;;;;14.42;99.6084;94178.75;;;;
2019/05/28 06:12:30;;;;;;;6.7;5.55;;;;;;;14.42;99.6084;94178.75;;;;
2019/05/28 06:13:31;;;;;;;6.7;5.55;;;;;;;14.42;99.6084;94178.75;;;;
2019/05/28 06:14:32;;;;;;;6.7;5.55;;;;;;;14.42;99.6084;94178.75;;;;
2019/05/28 06:15:33;;;;;;;6.7;5.55;;;;;;;14.42;99.6084;94178.75;;;;
2019/05/28 06:16:34;;;;;;;6.7;5.55;;;;;;;14.42;99.6084;94178.75;;;;
2019/05/28 06:17:35;;;;;;;6.7;5.55;;;;;;;14.42;99.6084;94178.75;;;;
2019/05/28 06:18:36;;;;;;;6.7;5.55;;;;;;;14.42;99.6084;94178.75;;;;
2019/05/28 06:19:37;;;;;;;6.7;5.55;;;;;;;14.42;99.6084;94178.75;;;;
2019/05/28 06:20:38;;;;;;;6.7;5.55;;;;;;;14.42;99.6084;94178.75;;;;
2019/05/28 06:21:39;;;;;;;6.7;5.55;;;;;;;14.42;99.6084;94178.75;;;;
2019/05/28 06:22:40;;;;;;;6.7;5.55;;;;;;;14.42;99.6084;94178.75;;;;
2019/05/28 06:23:41;;;;;;;6.7;5.55;;;;;;;14.42;99.6084;94178.75;;;;
2019/05/28 06:24:42;;;;;;;6.7;5.55;;;;;;;14.42;99.6084;94178.75;;;;
2019/05/28 06:25:44;;;;;;;6.7;5.55;;;;;;;14.42;99.6084;94178.75;;;;
2019/05/28 06:26:45;;;;;;;6.7;5.55;;;;;;;14.42;99.6084;94178.75;;;;
2019/05/28 06:27:46;;;;;;;6.7;5.55;;;;;;;14.42;99.6084;94178.75;;;;
2019/05/28 06:28:47;;;;;;;6.7;5.55;;;;;;;14.42;99.6084;94178.75;;;;
2019/05/28 06:29:48;;;;;;;6.7;5.55;;;;;;;14.42;99.6084;94178.75;;;;
2019/05/28 06:30:49;;;;;;;6.7;5.55;;;;;;;14.42;99.6084;94178.75;;;;
2019/05/28 06:31:50;;;;;;;6.7;5.55;;;;;;;14.42;99.6084;94178.75;;;;
2019/05/28 06:32:51;;;;;;;6.7;5.55;;;;;;;14.42;99.6084;94178.75;;;;
2019/05/28 06:33:52;;;;;;;6.7;5.55;;;;;;;14.42;99.6084;94178.75;;;;
2019/05/28 06:34:53;;;;;;;6.7;5.55;;;;;;;14.42;99.6084;94178.75;;;;
2019/05/28 06:35:54;;;;;;;6.7;5.55;;;;;;;14.42;99.6084;94178.75;;;;
2019/05/28 06:36:55;;;;;;;6.7;5.55;;;;;;;14.42;99.6084;94178.75;;;;
2019/05/28 06:37:56;;;;;;;6.7;5.55;;;;;;;14.42;99.6084;94178.75;;;;
2019/05/28 06:38:58;;;;;;;6.7;5.55;;;;;;;14.42;99.6084;94178.75;;;;
2019/05/28 06:39:59;;;;;;;6.7;5.55;;;;;;;14.42;99.6084;94178.75;;;;
2019/05/28 06:41:00;;;;;;;6.7;5.55;;;;;;;14.42;99.6084;94178.75;;;;
2019/05/28 06:42:01;;;;;;;6.7;5.55;;;;;;;14.42;99.6084;94178.75;;;;
2019/05/28 06:43:02;;;;;;;6.7;5.55;;;;;;;14.42;99.6084;94178.75;;;;
2019/05/28 06:44:03;;;;;;;6.7;5.55;;;;;;;14.42;99.6084;94178.75;;;;
2019/05/28 06:45:04;;;;;;;6.7;5.55;;;;;;;14.42;99.6084;94178.75;;;;
2019/05/28 06:46:05;;;;;;;6.7;5.55;;;;;;;14.42;99.6084;94178.75;;;;
2019/05/28 06:47:06;;;;;;;6.7;5.55;;;;;;;14.42;99.6084;94178.75;;;;
2019/05/28 06:48:07;;;;;;;6.7;5.55;;;;;;;14.42;99.6084;94178.75;;;;
2019/05/28 06:56:09;;;;;;;9.1;6.35;;;;;;;14.76;99.37305;94189.12;;;;
2019/05/28 06:57:10;;;;;;;9.1;6.35;;;;;;;14.76;99.37305;94189.12;;;;
2019/05/28 06:58:11;;;;;;;9.1;6.35;;;;;;;14.76;99.37305;94189.12;;;;
2019/05/28 06:59:12;;;;;;;9.1;6.35;;;;;;;14.76;99.37305;94189.12;;;;
2019/05/28 07:00:13;;;;;;;9.1;6.35;;;;;;;14.76;99.37305;94189.12;;;;
2019/05/28 07:01:14;;;;;;;9.1;6.35;;;;;;;14.76;99.37305;94189.12;;;;
2019/05/28 07:02:15;;;;;;;9.1;6.35;;;;;;;14.76;99.37305;94189.12;;;;
2019/05/28 07:03:16;;;;;;;9.1;6.35;;;;;;;14.76;99.37305;94189.12;;;;
2019/05/28 07:04:18;;;;;;;9.1;6.35;;;;;;;14.76;99.37305;94189.12;;;;
2019/05/28 07:05:19;;;;;;;9.1;6.35;;;;;;;14.76;99.37305;94189.12;;;;
2019/05/28 07:06:20;;;;;;;9.1;6.35;;;;;;;14.76;99.37305;94189.12;;;;
2019/05/28 07:07:21;;;;;;;9.1;6.35;;;;;;;14.76;99.37305;94189.12;;;;
2019/05/28 07:08:22;;;;;;;9.1;6.35;;;;;;;14.76;99.37305;94189.12;;;;
2019/05/28 07:09:23;;;;;;;9.1;6.35;;;;;;;14.76;99.37305;94189.12;;;;
2019/05/28 07:10:24;;;;;;;9.1;6.35;;;;;;;14.76;99.37305;94189.12;;;;
2019/05/28 07:11:25;;;;;;;9.1;6.35;;;;;;;14.76;99.37305;94189.12;;;;
2019/05/28 07:12:26;;;;;;;9.1;6.35;;;;;;;14.76;99.37305;94189.12;;;;
2019/05/28 07:13:27;;;;;;;9.1;6.35;;;;;;;14.76;99.37305;94189.12;;;;
2019/05/28 07:14:28;;;;;;;9.1;6.35;;;;;;;14.76;99.37305;94189.12;;;;
2019/05/28 07:15:29;;;;;;;9.1;6.35;;;;;;;14.76;99.37305;94189.12;;;;
2019/05/28 07:16:30;;;;;;;9.1;6.35;;;;;;;14.76;99.37305;94189.12;;;;
2019/05/28 07:17:32;;;;;;;9.1;6.35;;;;;;;14.76;99.37305;94189.12;;;;
2019/05/28 07:18:33;;;;;;;9.1;6.35;;;;;;;14.76;99.37305;94189.12;;;;
2019/05/28 07:19:34;;;;;;;9.1;6.35;;;;;;;14.76;99.37305;94189.12;;;;
2019/05/28 07:20:35;;;;;;;9.1;6.35;;;;;;;14.76;99.37305;94189.12;;;;
2019/05/28 07:21:36;;;;;;;9.1;6.35;;;;;;;14.76;99.37305;94189.12;;;;
2019/05/28 07:22:37;;;;;;;9.1;6.35;;;;;;;14.76;99.37305;94189.12;;;;
2019/05/28 07:23:38;;;;;;;9.1;6.35;;;;;;;14.76;99.37305;94189.12;;;;
2019/05/28 07:24:39;;;;;;;9.1;6.35;;;;;;;14.76;99.37305;94189.12;;;;
2019/05/28 07:25:40;;;;;;;9.1;6.35;;;;;;;14.76;99.37305;94189.12;;;;
2019/05/28 07:26:41;;;;;;;9.1;6.35;;;;;;;14.76;99.37305;94189.12;;;;
2019/05/28 07:27:42;;;;;;;9.1;6.35;;;;;;;14.76;99.37305;94189.12;;;;
2019/05/28 07:28:43;;;;;;;9.1;6.35;;;;;;;14.76;99.37305;94189.12;;;;
2019/05/28 07:29:44;;;;;;;9.1;6.35;;;;;;;14.76;99.37305;94189.12;;;;
2019/05/28 07:30:45;;;;;;;9.1;6.35;;;;;;;14.76;99.37305;94189.12;;;;
2019/05/28 07:31:46;;;;;;;9.1;6.35;;;;;;;14.76;99.37305;94189.12;;;;
2019/05/28 07:32:48;;;;;;;9.1;6.35;;;;;;;14.76;99.37305;94189.12;;;;
2019/05/28 07:33:49;;;;;;;9.1;6.35;;;;;;;14.76;99.37305;94189.12;;;;
2019/05/28 07:34:50;;;;;;;9.1;6.35;;;;;;;14.76;99.37305;94189.12;;;;
2019/05/28 07:35:51;;;;;;;9.1;6.35;;;;;;;14.76;99.37305;94189.12;;;;
2019/05/28 07:36:52;;;;;;;9.1;6.35;;;;;;;14.76;99.37305;94189.12;;;;
2019/05/28 07:37:53;;;;;;;9.1;6.35;;;;;;;14.76;99.37305;94189.12;;;;
2019/05/28 07:38:54;;;;;;;9.1;6.35;;;;;;;14.76;99.37305;94189.12;;;;
2019/05/28 07:39:55;;;;;;;9.1;6.35;;;;;;;14.76;99.37305;94189.12;;;;
2019/05/28 07:40:56;;;;;;;9.1;6.35;;;;;;;14.76;99.37305;94189.12;;;;
2019/05/28 09:04:02;;;;;;;13.3;11.9;;;;;;;14.54;100;94212.71;;;;
2019/05/28 09:05:03;;;;;;;13.3;11.9;;;;;;;14.54;100;94212.71;;;;
2019/05/28 09:06:04;;;;;;;13.3;11.9;;;;;;;14.54;100;94212.71;;;;
2019/05/28 09:07:05;;;;;;;13.3;11.9;;;;;;;14.54;100;94212.71;;;;
2019/05/28 09:08:06;;;;;;;13.3;11.9;;;;;;;14.54;100;94212.71;;;;
2019/05/28 09:09:08;;;;;;;13.3;11.9;;;;;;;14.54;100;94212.71;;;;
2019/05/28 09:10:09;;;;;;;13.3;11.9;;;;;;;14.54;100;94212.71;;;;
2019/05/28 09:11:10;;;;;;;13.3;11.9;;;;;;;14.54;100;94212.71;;;;
2019/05/28 09:12:11;;;;;;;13.3;11.9;;;;;;;14.54;100;94212.71;;;;
2019/05/28 09:13:12;;;;;;;13.3;11.9;;;;;;;14.54;100;94212.71;;;;
2019/05/28 09:14:13;;;;;;;13.3;11.9;;;;;;;14.54;100;94212.71;;;;
2019/05/28 09:15:14;;;;;;;13.3;11.9;;;;;;;14.54;100;94212.71;;;;
2019/05/28 09:16:15;;;;;;;13.3;11.9;;;;;;;14.54;100;94212.71;;;;
2019/05/28 09:17:16;;;;;;;13.3;11.9;;;;;;;14.54;100;94212.71;;;;
2019/05/28 09:18:17;;;;;;;13.3;11.9;;;;;;;14.54;100;94212.71;;;;
2019/05/28 09:19:18;;;;;;;13.3;11.9;;;;;;;14.54;100;94212.71;;;;
2019/05/28 09:20:19;;;;;;;13.3;11.9;;;;;;;14.54;100;94212.71;;;;
2019/05/28 09:21:20;;;;;;;13.3;11.9;;;;;;;14.54;100;94212.71;;;;
2019/05/28 09:22:22;;;;;;;13.3;11.9;;;;;;;14.54;100;94212.71;;;;
2019/05/28 09:23:23;;;;;;;13.3;11.9;;;;;;;14.54;100;94212.71;;;;
2019/05/28 09:24:24;;;;;;;13.3;11.9;;;;;;;14.54;100;94212.71;;;;
2019/05/28 09:25:25;;;;;;;13.3;11.9;;;;;;;14.54;100;94212.71;;;;
2019/05/28 09:26:26;;;;;;;13.3;11.9;;;;;;;14.54;100;94212.71;;;;
2019/05/28 09:27:27;;;;;;;13.3;11.9;;;;;;;14.54;100;94212.71;;;;
2019/05/28 09:28:28;;;;;;;13.3;11.9;;;;;;;14.54;100;94212.71;;;;
2019/05/28 09:29:29;;;;;;;13.3;11.9;;;;;;;14.54;100;94212.71;;;;
2019/05/28 09:30:30;;;;;;;13.3;11.9;;;;;;;14.54;100;94212.71;;;;